sensor_id;sensor_type;location;lat;lon;timestamp;P1;durP1;ratioP1;P2;durP2;ratioP2
79212;SDS011;68639;52.380;9.822;2023-11-19T00:01:22;7.60;;;4.60;;
79212;SDS011;68639;52.380;9.822;2023-11-19T00:03:47;6.47;;;4.30;;
79212;SDS011;68639;52.380;9.822;2023-11-19T00:06:13;7.17;;;3.80;;
79212;SDS011;68639;52.380;9.822;2023-11-19T00:08:38;5.77;;;4.03;;
79212;SDS011;68639;52.380;9.822;2023-11-19T00:11:03;5.03;;;3.30;;
79212;SDS011;68639;52.380;9.822;2023-11-19T00:13:29;4.50;;;3.27;;
79212;SDS011;68639;52.380;9.822;2023-11-19T00:15:54;5.77;;;3.10;;
79212;SDS011;68639;52.380;9.822;2023-11-19T00:18:19;5.30;;;2.67;;
79212;SDS011;68639;52.380;9.822;2023-11-19T00:20:44;4.53;;;3.17;;
79212;SDS011;68639;52.380;9.822;2023-11-19T00:23:10;5.83;;;3.30;;
79212;SDS011;68639;52.380;9.822;2023-11-19T00:25:35;5.83;;;3.20;;
79212;SDS011;68639;52.380;9.822;2023-11-19T00:28:00;4.90;;;2.90;;
79212;SDS011;68639;52.380;9.822;2023-11-19T00:30:25;4.67;;;3.03;;
79212;SDS011;68639;52.380;9.822;2023-11-19T00:32:50;6.13;;;3.03;;
79212;SDS011;68639;52.380;9.822;2023-11-19T00:35:15;3.90;;;2.83;;
79212;SDS011;68639;52.380;9.822;2023-11-19T00:37:41;5.03;;;2.80;;
79212;SDS011;68639;52.380;9.822;2023-11-19T00:40:07;3.57;;;2.60;;
79212;SDS011;68639;52.380;9.822;2023-11-19T00:42:33;3.90;;;2.70;;
79212;SDS011;68639;52.380;9.822;2023-11-19T00:44:58;5.07;;;3.00;;
79212;SDS011;68639;52.380;9.822;2023-11-19T00:47:23;4.50;;;2.93;;
79212;SDS011;68639;52.380;9.822;2023-11-19T00:49:48;4.20;;;2.70;;
79212;SDS011;68639;52.380;9.822;2023-11-19T00:52:15;4.33;;;2.77;;
79212;SDS011;68639;52.380;9.822;2023-11-19T00:54:40;3.63;;;2.57;;
79212;SDS011;68639;52.380;9.822;2023-11-19T00:57:06;6.67;;;3.20;;
79212;SDS011;68639;52.380;9.822;2023-11-19T00:59:31;5.83;;;3.30;;
79212;SDS011;68639;52.380;9.822;2023-11-19T01:01:56;4.23;;;3.20;;
79212;SDS011;68639;52.380;9.822;2023-11-19T01:04:21;4.27;;;3.30;;
79212;SDS011;68639;52.380;9.822;2023-11-19T01:06:46;5.80;;;3.47;;
79212;SDS011;68639;52.380;9.822;2023-11-19T01:09:12;5.20;;;3.17;;
79212;SDS011;68639;52.380;9.822;2023-11-19T01:11:37;4.07;;;2.90;;
79212;SDS011;68639;52.380;9.822;2023-11-19T01:14:02;6.47;;;3.10;;
79212;SDS011;68639;52.380;9.822;2023-11-19T01:16:27;5.27;;;3.00;;
79212;SDS011;68639;52.380;9.822;2023-11-19T01:18:53;4.20;;;2.80;;
79212;SDS011;68639;52.380;9.822;2023-11-19T01:21:18;4.37;;;2.80;;
79212;SDS011;68639;52.380;9.822;2023-11-19T01:23:43;5.33;;;2.57;;
79212;SDS011;68639;52.380;9.822;2023-11-19T01:26:09;3.23;;;2.37;;
79212;SDS011;68639;52.380;9.822;2023-11-19T01:28:37;3.33;;;2.37;;
79212;SDS011;68639;52.380;9.822;2023-11-19T01:31:04;4.00;;;2.40;;
79212;SDS011;68639;52.380;9.822;2023-11-19T01:33:29;3.60;;;2.57;;
79212;SDS011;68639;52.380;9.822;2023-11-19T01:35:54;3.93;;;2.50;;
79212;SDS011;68639;52.380;9.822;2023-11-19T01:38:21;3.67;;;2.40;;
79212;SDS011;68639;52.380;9.822;2023-11-19T01:40:46;2.83;;;1.93;;
79212;SDS011;68639;52.380;9.822;2023-11-19T01:43:11;2.83;;;2.00;;
79212;SDS011;68639;52.380;9.822;2023-11-19T01:45:36;3.10;;;2.20;;
79212;SDS011;68639;52.380;9.822;2023-11-19T01:48:02;3.67;;;2.33;;
79212;SDS011;68639;52.380;9.822;2023-11-19T01:50:30;4.27;;;2.00;;
79212;SDS011;68639;52.380;9.822;2023-11-19T01:52:56;3.13;;;2.10;;
79212;SDS011;68639;52.380;9.822;2023-11-19T01:55:25;3.00;;;2.30;;
79212;SDS011;68639;52.380;9.822;2023-11-19T01:57:51;3.97;;;2.77;;
79212;SDS011;68639;52.380;9.822;2023-11-19T02:00:18;5.53;;;2.20;;
79212;SDS011;68639;52.380;9.822;2023-11-19T02:02:44;3.57;;;2.40;;
79212;SDS011;68639;52.380;9.822;2023-11-19T02:05:11;3.67;;;2.50;;
79212;SDS011;68639;52.380;9.822;2023-11-19T02:07:36;5.00;;;2.40;;
79212;SDS011;68639;52.380;9.822;2023-11-19T02:10:02;3.03;;;2.17;;
79212;SDS011;68639;52.380;9.822;2023-11-19T02:12:27;3.93;;;2.30;;
79212;SDS011;68639;52.380;9.822;2023-11-19T02:14:58;2.90;;;2.20;;
79212;SDS011;68639;52.380;9.822;2023-11-19T02:17:30;2.00;;;1.53;;
79212;SDS011;68639;52.380;9.822;2023-11-19T02:19:59;3.03;;;2.07;;
79212;SDS011;68639;52.380;9.822;2023-11-19T02:22:24;6.07;;;2.00;;
79212;SDS011;68639;52.380;9.822;2023-11-19T02:24:51;4.17;;;2.13;;
79212;SDS011;68639;52.380;9.822;2023-11-19T02:27:26;3.73;;;1.90;;
79212;SDS011;68639;52.380;9.822;2023-11-19T02:29:55;3.50;;;1.70;;
79212;SDS011;68639;52.380;9.822;2023-11-19T02:32:20;3.13;;;1.70;;
79212;SDS011;68639;52.380;9.822;2023-11-19T02:34:46;3.50;;;1.73;;
79212;SDS011;68639;52.380;9.822;2023-11-19T02:37:11;3.17;;;1.70;;
79212;SDS011;68639;52.380;9.822;2023-11-19T02:39:36;3.07;;;2.00;;
79212;SDS011;68639;52.380;9.822;2023-11-19T02:42:01;4.03;;;1.63;;
79212;SDS011;68639;52.380;9.822;2023-11-19T02:44:27;4.03;;;1.40;;
79212;SDS011;68639;52.380;9.822;2023-11-19T02:46:55;3.03;;;1.40;;
79212;SDS011;68639;52.380;9.822;2023-11-19T02:49:21;2.77;;;1.20;;
79212;SDS011;68639;52.380;9.822;2023-11-19T02:51:46;2.73;;;1.00;;
79212;SDS011;68639;52.380;9.822;2023-11-19T02:54:11;3.17;;;1.40;;
79212;SDS011;68639;52.380;9.822;2023-11-19T02:56:37;1.40;;;1.00;;
79212;SDS011;68639;52.380;9.822;2023-11-19T02:59:04;1.50;;;1.00;;
79212;SDS011;68639;52.380;9.822;2023-11-19T03:01:43;1.33;;;0.90;;
79212;SDS011;68639;52.380;9.822;2023-11-19T03:04:13;4.00;;;1.10;;
79212;SDS011;68639;52.380;9.822;2023-11-19T03:06:42;1.70;;;1.00;;
79212;SDS011;68639;52.380;9.822;2023-11-19T03:09:07;1.37;;;0.80;;
79212;SDS011;68639;52.380;9.822;2023-11-19T03:11:35;3.10;;;0.90;;
79212;SDS011;68639;52.380;9.822;2023-11-19T03:14:00;2.37;;;0.90;;
79212;SDS011;68639;52.380;9.822;2023-11-19T03:16:25;1.80;;;1.07;;
79212;SDS011;68639;52.380;9.822;2023-11-19T03:18:51;3.40;;;1.00;;
79212;SDS011;68639;52.380;9.822;2023-11-19T03:21:16;1.83;;;1.20;;
79212;SDS011;68639;52.380;9.822;2023-11-19T03:23:41;1.97;;;1.30;;
79212;SDS011;68639;52.380;9.822;2023-11-19T03:26:09;2.27;;;1.10;;
79212;SDS011;68639;52.380;9.822;2023-11-19T03:28:35;3.10;;;1.50;;
79212;SDS011;68639;52.380;9.822;2023-11-19T03:31:00;2.50;;;1.30;;
79212;SDS011;68639;52.380;9.822;2023-11-19T03:33:26;2.10;;;1.00;;
79212;SDS011;68639;52.380;9.822;2023-11-19T03:35:52;2.03;;;1.27;;
79212;SDS011;68639;52.380;9.822;2023-11-19T03:38:18;3.20;;;1.20;;
79212;SDS011;68639;52.380;9.822;2023-11-19T03:40:43;2.00;;;1.20;;
79212;SDS011;68639;52.380;9.822;2023-11-19T03:43:08;2.53;;;1.43;;
79212;SDS011;68639;52.380;9.822;2023-11-19T03:45:34;2.50;;;1.47;;
79212;SDS011;68639;52.380;9.822;2023-11-19T03:48:01;1.90;;;1.30;;
79212;SDS011;68639;52.380;9.822;2023-11-19T03:50:26;2.83;;;1.30;;
79212;SDS011;68639;52.380;9.822;2023-11-19T03:52:51;3.67;;;1.53;;
79212;SDS011;68639;52.380;9.822;2023-11-19T03:55:17;2.00;;;1.40;;
79212;SDS011;68639;52.380;9.822;2023-11-19T03:57:42;2.23;;;1.27;;
79212;SDS011;68639;52.380;9.822;2023-11-19T04:00:07;3.47;;;1.60;;
79212;SDS011;68639;52.380;9.822;2023-11-19T04:02:35;2.50;;;1.60;;
79212;SDS011;68639;52.380;9.822;2023-11-19T04:05:00;3.70;;;1.70;;
79212;SDS011;68639;52.380;9.822;2023-11-19T04:07:25;2.87;;;1.70;;
79212;SDS011;68639;52.380;9.822;2023-11-19T04:09:50;3.83;;;1.73;;
79212;SDS011;68639;52.380;9.822;2023-11-19T04:12:15;3.13;;;1.47;;
79212;SDS011;68639;52.380;9.822;2023-11-19T04:14:41;2.67;;;1.70;;
79212;SDS011;68639;52.380;9.822;2023-11-19T04:17:06;2.40;;;1.60;;
79212;SDS011;68639;52.380;9.822;2023-11-19T04:19:31;3.43;;;1.77;;
79212;SDS011;68639;52.380;9.822;2023-11-19T04:21:57;3.70;;;1.70;;
79212;SDS011;68639;52.380;9.822;2023-11-19T04:24:22;2.67;;;1.70;;
79212;SDS011;68639;52.380;9.822;2023-11-19T04:26:48;3.37;;;1.80;;
79212;SDS011;68639;52.380;9.822;2023-11-19T04:29:13;2.63;;;1.60;;
79212;SDS011;68639;52.380;9.822;2023-11-19T04:31:39;4.00;;;1.70;;
79212;SDS011;68639;52.380;9.822;2023-11-19T04:34:05;3.40;;;1.77;;
79212;SDS011;68639;52.380;9.822;2023-11-19T04:36:31;2.63;;;1.80;;
79212;SDS011;68639;52.380;9.822;2023-11-19T04:38:56;3.57;;;1.90;;
79212;SDS011;68639;52.380;9.822;2023-11-19T04:41:22;3.80;;;2.03;;
79212;SDS011;68639;52.380;9.822;2023-11-19T04:43:47;3.83;;;2.10;;
79212;SDS011;68639;52.380;9.822;2023-11-19T04:46:12;5.03;;;2.40;;
79212;SDS011;68639;52.380;9.822;2023-11-19T04:48:37;3.43;;;1.97;;
79212;SDS011;68639;52.380;9.822;2023-11-19T04:51:04;5.27;;;2.70;;
79212;SDS011;68639;52.380;9.822;2023-11-19T04:53:29;5.07;;;2.63;;
79212;SDS011;68639;52.380;9.822;2023-11-19T04:55:55;4.97;;;3.20;;
79212;SDS011;68639;52.380;9.822;2023-11-19T04:58:20;6.40;;;3.40;;
79212;SDS011;68639;52.380;9.822;2023-11-19T05:00:45;7.43;;;3.70;;
79212;SDS011;68639;52.380;9.822;2023-11-19T05:03:10;6.97;;;3.67;;
79212;SDS011;68639;52.380;9.822;2023-11-19T05:05:36;7.07;;;4.03;;
79212;SDS011;68639;52.380;9.822;2023-11-19T05:08:01;7.70;;;4.60;;
79212;SDS011;68639;52.380;9.822;2023-11-19T05:10:26;11.13;;;5.10;;
79212;SDS011;68639;52.380;9.822;2023-11-19T05:12:51;9.47;;;5.70;;
79212;SDS011;68639;52.380;9.822;2023-11-19T05:15:17;15.13;;;6.03;;
79212;SDS011;68639;52.380;9.822;2023-11-19T05:17:42;13.20;;;7.23;;
79212;SDS011;68639;52.380;9.822;2023-11-19T05:20:07;15.83;;;7.37;;
79212;SDS011;68639;52.380;9.822;2023-11-19T05:22:38;17.63;;;6.87;;
79212;SDS011;68639;52.380;9.822;2023-11-19T05:25:04;12.27;;;6.97;;
79212;SDS011;68639;52.380;9.822;2023-11-19T05:27:30;16.23;;;7.20;;
79212;SDS011;68639;52.380;9.822;2023-11-19T05:29:55;14.63;;;7.13;;
79212;SDS011;68639;52.380;9.822;2023-11-19T05:32:21;15.50;;;8.63;;
79212;SDS011;68639;52.380;9.822;2023-11-19T05:34:46;18.77;;;8.37;;
79212;SDS011;68639;52.380;9.822;2023-11-19T05:37:11;19.17;;;7.93;;
79212;SDS011;68639;52.380;9.822;2023-11-19T05:39:36;19.73;;;8.83;;
79212;SDS011;68639;52.380;9.822;2023-11-19T05:42:01;18.03;;;8.50;;
79212;SDS011;68639;52.380;9.822;2023-11-19T05:44:26;19.30;;;8.97;;
79212;SDS011;68639;52.380;9.822;2023-11-19T05:46:52;21.80;;;8.70;;
79212;SDS011;68639;52.380;9.822;2023-11-19T05:49:17;20.57;;;9.67;;
79212;SDS011;68639;52.380;9.822;2023-11-19T05:51:42;21.70;;;9.67;;
79212;SDS011;68639;52.380;9.822;2023-11-19T05:54:08;20.23;;;9.17;;
79212;SDS011;68639;52.380;9.822;2023-11-19T05:56:33;25.47;;;10.13;;
79212;SDS011;68639;52.380;9.822;2023-11-19T05:58:59;22.47;;;11.40;;
79212;SDS011;68639;52.380;9.822;2023-11-19T06:01:29;25.33;;;10.87;;
79212;SDS011;68639;52.380;9.822;2023-11-19T06:03:54;20.43;;;10.33;;
79212;SDS011;68639;52.380;9.822;2023-11-19T06:06:19;24.43;;;10.93;;
79212;SDS011;68639;52.380;9.822;2023-11-19T06:08:45;20.63;;;9.97;;
79212;SDS011;68639;52.380;9.822;2023-11-19T06:11:10;27.87;;;10.50;;
79212;SDS011;68639;52.380;9.822;2023-11-19T06:13:43;28.23;;;10.63;;
79212;SDS011;68639;52.380;9.822;2023-11-19T06:16:08;24.20;;;11.03;;
79212;SDS011;68639;52.380;9.822;2023-11-19T06:18:33;22.77;;;11.33;;
79212;SDS011;68639;52.380;9.822;2023-11-19T06:20:59;23.00;;;11.73;;
79212;SDS011;68639;52.380;9.822;2023-11-19T06:23:24;19.77;;;12.00;;
79212;SDS011;68639;52.380;9.822;2023-11-19T06:25:49;31.77;;;11.73;;
79212;SDS011;68639;52.380;9.822;2023-11-19T06:28:14;22.00;;;11.20;;
79212;SDS011;68639;52.380;9.822;2023-11-19T06:30:39;24.63;;;11.10;;
79212;SDS011;68639;52.380;9.822;2023-11-19T06:33:06;26.67;;;10.90;;
79212;SDS011;68639;52.380;9.822;2023-11-19T06:35:31;26.20;;;11.90;;
79212;SDS011;68639;52.380;9.822;2023-11-19T06:38:01;26.93;;;10.60;;
79212;SDS011;68639;52.380;9.822;2023-11-19T06:40:26;24.57;;;10.77;;
79212;SDS011;68639;52.380;9.822;2023-11-19T06:42:51;22.50;;;10.77;;
79212;SDS011;68639;52.380;9.822;2023-11-19T06:45:17;28.97;;;10.47;;
79212;SDS011;68639;52.380;9.822;2023-11-19T06:47:42;28.07;;;10.27;;
79212;SDS011;68639;52.380;9.822;2023-11-19T06:50:07;19.10;;;8.23;;
79212;SDS011;68639;52.380;9.822;2023-11-19T06:52:34;27.73;;;8.20;;
79212;SDS011;68639;52.380;9.822;2023-11-19T06:54:59;21.73;;;7.53;;
79212;SDS011;68639;52.380;9.822;2023-11-19T06:57:24;25.03;;;7.63;;
79212;SDS011;68639;52.380;9.822;2023-11-19T06:59:50;30.00;;;8.30;;
79212;SDS011;68639;52.380;9.822;2023-11-19T07:02:15;27.13;;;7.67;;
79212;SDS011;68639;52.380;9.822;2023-11-19T07:04:40;27.30;;;7.67;;
79212;SDS011;68639;52.380;9.822;2023-11-19T07:07:05;24.10;;;7.07;;
79212;SDS011;68639;52.380;9.822;2023-11-19T07:09:31;29.73;;;7.50;;
79212;SDS011;68639;52.380;9.822;2023-11-19T07:11:56;25.03;;;6.90;;
79212;SDS011;68639;52.380;9.822;2023-11-19T07:14:21;22.63;;;6.50;;
79212;SDS011;68639;52.380;9.822;2023-11-19T07:16:48;21.33;;;6.20;;
79212;SDS011;68639;52.380;9.822;2023-11-19T07:19:15;25.93;;;6.50;;
79212;SDS011;68639;52.380;9.822;2023-11-19T07:21:43;26.13;;;6.73;;
79212;SDS011;68639;52.380;9.822;2023-11-19T07:24:11;27.20;;;6.57;;
79212;SDS011;68639;52.380;9.822;2023-11-19T07:26:45;24.07;;;5.50;;
79212;SDS011;68639;52.380;9.822;2023-11-19T07:29:12;23.70;;;5.83;;
79212;SDS011;68639;52.380;9.822;2023-11-19T07:31:37;30.53;;;6.23;;
79212;SDS011;68639;52.380;9.822;2023-11-19T07:34:02;25.23;;;5.40;;
79212;SDS011;68639;52.380;9.822;2023-11-19T07:36:28;29.00;;;6.07;;
79212;SDS011;68639;52.380;9.822;2023-11-19T07:38:53;28.00;;;6.00;;
79212;SDS011;68639;52.380;9.822;2023-11-19T07:41:20;33.60;;;5.87;;
79212;SDS011;68639;52.380;9.822;2023-11-19T07:43:46;32.60;;;5.30;;
79212;SDS011;68639;52.380;9.822;2023-11-19T07:46:15;30.43;;;6.20;;
79212;SDS011;68639;52.380;9.822;2023-11-19T07:48:40;25.73;;;4.90;;
79212;SDS011;68639;52.380;9.822;2023-11-19T07:51:07;32.70;;;5.50;;
79212;SDS011;68639;52.380;9.822;2023-11-19T07:53:32;29.60;;;4.60;;
79212;SDS011;68639;52.380;9.822;2023-11-19T07:56:02;27.45;;;4.85;;
79212;SDS011;68639;52.380;9.822;2023-11-19T07:58:28;35.13;;;5.67;;
79212;SDS011;68639;52.380;9.822;2023-11-19T08:00:53;33.60;;;5.73;;
79212;SDS011;68639;52.380;9.822;2023-11-19T08:03:18;31.03;;;5.43;;
79212;SDS011;68639;52.380;9.822;2023-11-19T08:05:44;36.70;;;5.70;;
79212;SDS011;68639;52.380;9.822;2023-11-19T08:08:09;27.17;;;5.57;;
79212;SDS011;68639;52.380;9.822;2023-11-19T08:10:35;30.63;;;5.77;;
79212;SDS011;68639;52.380;9.822;2023-11-19T08:13:00;28.60;;;5.50;;
79212;SDS011;68639;52.380;9.822;2023-11-19T08:15:25;26.63;;;5.17;;
79212;SDS011;68639;52.380;9.822;2023-11-19T08:17:50;32.10;;;5.40;;
79212;SDS011;68639;52.380;9.822;2023-11-19T08:20:16;33.07;;;5.27;;
79212;SDS011;68639;52.380;9.822;2023-11-19T08:22:41;33.00;;;6.27;;
79212;SDS011;68639;52.380;9.822;2023-11-19T08:25:06;31.57;;;4.73;;
79212;SDS011;68639;52.380;9.822;2023-11-19T08:27:33;33.53;;;5.80;;
79212;SDS011;68639;52.380;9.822;2023-11-19T08:29:58;29.63;;;5.50;;
79212;SDS011;68639;52.380;9.822;2023-11-19T08:32:26;32.10;;;5.30;;
79212;SDS011;68639;52.380;9.822;2023-11-19T08:34:52;29.93;;;5.17;;
79212;SDS011;68639;52.380;9.822;2023-11-19T08:37:17;32.73;;;6.20;;
79212;SDS011;68639;52.380;9.822;2023-11-19T08:39:48;32.20;;;5.53;;
79212;SDS011;68639;52.380;9.822;2023-11-19T08:42:14;38.70;;;6.77;;
79212;SDS011;68639;52.380;9.822;2023-11-19T08:44:39;34.90;;;6.53;;
79212;SDS011;68639;52.380;9.822;2023-11-19T08:47:05;39.03;;;6.23;;
79212;SDS011;68639;52.380;9.822;2023-11-19T08:49:30;32.93;;;5.80;;
79212;SDS011;68639;52.380;9.822;2023-11-19T08:51:56;31.87;;;5.60;;
79212;SDS011;68639;52.380;9.822;2023-11-19T08:54:21;39.90;;;6.70;;
79212;SDS011;68639;52.380;9.822;2023-11-19T08:56:47;41.17;;;6.30;;
79212;SDS011;68639;52.380;9.822;2023-11-19T08:59:13;38.43;;;12.97;;
79212;SDS011;68639;52.380;9.822;2023-11-19T09:01:38;29.40;;;4.87;;
79212;SDS011;68639;52.380;9.822;2023-11-19T09:04:03;36.27;;;5.50;;
79212;SDS011;68639;52.380;9.822;2023-11-19T09:06:29;38.33;;;6.70;;
79212;SDS011;68639;52.380;9.822;2023-11-19T09:08:54;34.97;;;6.40;;
79212;SDS011;68639;52.380;9.822;2023-11-19T09:11:25;39.03;;;6.77;;
79212;SDS011;68639;52.380;9.822;2023-11-19T09:13:50;33.70;;;5.93;;
79212;SDS011;68639;52.380;9.822;2023-11-19T09:16:15;35.60;;;5.63;;
79212;SDS011;68639;52.380;9.822;2023-11-19T09:18:40;35.70;;;6.83;;
79212;SDS011;68639;52.380;9.822;2023-11-19T09:21:06;36.90;;;5.83;;
79212;SDS011;68639;52.380;9.822;2023-11-19T09:23:31;32.40;;;6.10;;
79212;SDS011;68639;52.380;9.822;2023-11-19T09:26:01;41.37;;;6.90;;
79212;SDS011;68639;52.380;9.822;2023-11-19T09:28:26;34.80;;;6.10;;
79212;SDS011;68639;52.380;9.822;2023-11-19T09:30:51;35.00;;;6.17;;
79212;SDS011;68639;52.380;9.822;2023-11-19T09:33:16;38.47;;;6.50;;
79212;SDS011;68639;52.380;9.822;2023-11-19T09:35:42;26.80;;;5.00;;
79212;SDS011;68639;52.380;9.822;2023-11-19T09:38:07;36.43;;;6.73;;
79212;SDS011;68639;52.380;9.822;2023-11-19T09:40:32;32.00;;;5.63;;
79212;SDS011;68639;52.380;9.822;2023-11-19T09:42:58;30.52;;;5.47;;
79212;SDS011;68639;52.380;9.822;2023-11-19T09:45:23;32.47;;;5.88;;
79212;SDS011;68639;52.380;9.822;2023-11-19T09:47:51;38.65;;;6.45;;
79212;SDS011;68639;52.380;9.822;2023-11-19T09:50:18;31.67;;;6.60;;
79212;SDS011;68639;52.380;9.822;2023-11-19T09:52:44;37.67;;;6.60;;
79212;SDS011;68639;52.380;9.822;2023-11-19T09:55:09;37.80;;;6.40;;
79212;SDS011;68639;52.380;9.822;2023-11-19T09:57:34;34.33;;;5.55;;
79212;SDS011;68639;52.380;9.822;2023-11-19T10:00:02;36.43;;;6.50;;
79212;SDS011;68639;52.380;9.822;2023-11-19T10:02:29;40.20;;;5.87;;
79212;SDS011;68639;52.380;9.822;2023-11-19T10:04:56;38.17;;;6.70;;
79212;SDS011;68639;52.380;9.822;2023-11-19T10:07:22;36.03;;;5.43;;
79212;SDS011;68639;52.380;9.822;2023-11-19T10:09:47;36.43;;;5.73;;
79212;SDS011;68639;52.380;9.822;2023-11-19T10:12:12;41.20;;;5.80;;
79212;SDS011;68639;52.380;9.822;2023-11-19T10:14:38;35.38;;;5.90;;
79212;SDS011;68639;52.380;9.822;2023-11-19T10:17:04;31.50;;;5.37;;
79212;SDS011;68639;52.380;9.822;2023-11-19T10:19:32;31.63;;;5.50;;
79212;SDS011;68639;52.380;9.822;2023-11-19T10:21:58;35.83;;;6.13;;
79212;SDS011;68639;52.380;9.822;2023-11-19T10:24:32;38.63;;;6.30;;
79212;SDS011;68639;52.380;9.822;2023-11-19T10:27:02;37.30;;;5.50;;
79212;SDS011;68639;52.380;9.822;2023-11-19T10:29:31;33.07;;;5.53;;
79212;SDS011;68639;52.380;9.822;2023-11-19T10:31:56;36.35;;;5.82;;
79212;SDS011;68639;52.380;9.822;2023-11-19T10:34:26;32.77;;;6.13;;
79212;SDS011;68639;52.380;9.822;2023-11-19T10:36:51;35.97;;;5.63;;
79212;SDS011;68639;52.380;9.822;2023-11-19T10:39:16;35.27;;;6.33;;
79212;SDS011;68639;52.380;9.822;2023-11-19T10:41:42;33.30;;;5.60;;
79212;SDS011;68639;52.380;9.822;2023-11-19T10:44:08;34.83;;;5.53;;
79212;SDS011;68639;52.380;9.822;2023-11-19T10:46:40;39.17;;;6.55;;
79212;SDS011;68639;52.380;9.822;2023-11-19T10:49:06;31.70;;;5.53;;
79212;SDS011;68639;52.380;9.822;2023-11-19T10:51:32;31.17;;;5.20;;
79212;SDS011;68639;52.380;9.822;2023-11-19T10:53:58;32.30;;;5.53;;
79212;SDS011;68639;52.380;9.822;2023-11-19T10:56:26;28.40;;;4.97;;
79212;SDS011;68639;52.380;9.822;2023-11-19T10:58:55;29.15;;;5.13;;
79212;SDS011;68639;52.380;9.822;2023-11-19T11:01:24;37.35;;;5.50;;
79212;SDS011;68639;52.380;9.822;2023-11-19T11:03:51;33.30;;;5.47;;
79212;SDS011;68639;52.380;9.822;2023-11-19T11:06:19;32.83;;;5.45;;
79212;SDS011;68639;52.380;9.822;2023-11-19T11:08:44;31.85;;;5.45;;
79212;SDS011;68639;52.380;9.822;2023-11-19T11:11:11;31.77;;;6.10;;
79212;SDS011;68639;52.380;9.822;2023-11-19T11:13:38;36.83;;;6.77;;
79212;SDS011;68639;52.380;9.822;2023-11-19T11:16:05;32.77;;;5.80;;
79212;SDS011;68639;52.380;9.822;2023-11-19T11:18:32;35.17;;;6.32;;
79212;SDS011;68639;52.380;9.822;2023-11-19T11:21:03;29.10;;;5.60;;
79212;SDS011;68639;52.380;9.822;2023-11-19T11:28:35;39.93;;;6.20;;
79212;SDS011;68639;52.380;9.822;2023-11-19T11:31:48;25.07;;;5.13;;
79212;SDS011;68639;52.380;9.822;2023-11-19T11:34:53;34.88;;;5.18;;
79212;SDS011;68639;52.380;9.822;2023-11-19T11:36:58;30.02;;;6.15;;
79212;SDS011;68639;52.380;9.822;2023-11-19T11:39:28;34.60;;;6.32;;
79212;SDS011;68639;52.380;9.822;2023-11-19T11:47:22;31.42;;;5.13;;
79212;SDS011;68639;52.380;9.822;2023-11-19T11:49:48;28.05;;;5.93;;
79212;SDS011;68639;52.380;9.822;2023-11-19T11:52:14;35.40;;;5.50;;
79212;SDS011;68639;52.380;9.822;2023-11-19T11:54:41;36.65;;;6.60;;
79212;SDS011;68639;52.380;9.822;2023-11-19T11:57:06;34.38;;;6.15;;
79212;SDS011;68639;52.380;9.822;2023-11-19T12:02:17;32.35;;;6.15;;
79212;SDS011;68639;52.380;9.822;2023-11-19T12:04:42;35.25;;;5.45;;
79212;SDS011;68639;52.380;9.822;2023-11-19T12:07:08;38.35;;;6.55;;
79212;SDS011;68639;52.380;9.822;2023-11-19T12:09:37;41.83;;;6.93;;
79212;SDS011;68639;52.380;9.822;2023-11-19T12:12:23;31.08;;;5.60;;
79212;SDS011;68639;52.380;9.822;2023-11-19T12:17:44;36.65;;;6.00;;
79212;SDS011;68639;52.380;9.822;2023-11-19T12:20:12;36.03;;;6.82;;
79212;SDS011;68639;52.380;9.822;2023-11-19T12:22:37;35.80;;;6.63;;
79212;SDS011;68639;52.380;9.822;2023-11-19T12:25:04;34.35;;;6.18;;
79212;SDS011;68639;52.380;9.822;2023-11-19T12:27:29;36.08;;;6.30;;
79212;SDS011;68639;52.380;9.822;2023-11-19T12:29:54;37.88;;;6.38;;
79212;SDS011;68639;52.380;9.822;2023-11-19T12:32:22;39.33;;;5.88;;
79212;SDS011;68639;52.380;9.822;2023-11-19T12:34:47;34.60;;;6.00;;
79212;SDS011;68639;52.380;9.822;2023-11-19T12:37:12;32.40;;;5.57;;
79212;SDS011;68639;52.380;9.822;2023-11-19T12:39:37;34.33;;;5.45;;
79212;SDS011;68639;52.380;9.822;2023-11-19T12:42:02;29.42;;;6.30;;
79212;SDS011;68639;52.380;9.822;2023-11-19T12:44:28;40.25;;;6.28;;
79212;SDS011;68639;52.380;9.822;2023-11-19T12:46:59;37.55;;;6.00;;
79212;SDS011;68639;52.380;9.822;2023-11-19T12:49:26;34.30;;;5.65;;
79212;SDS011;68639;52.380;9.822;2023-11-19T12:51:51;33.08;;;5.72;;
79212;SDS011;68639;52.380;9.822;2023-11-19T12:54:16;31.90;;;6.43;;
79212;SDS011;68639;52.380;9.822;2023-11-19T12:56:51;32.20;;;8.13;;
79212;SDS011;68639;52.380;9.822;2023-11-19T12:59:16;34.28;;;6.80;;
79212;SDS011;68639;52.380;9.822;2023-11-19T13:01:42;34.92;;;5.82;;
79212;SDS011;68639;52.380;9.822;2023-11-19T13:04:18;28.10;;;5.38;;
79212;SDS011;68639;52.380;9.822;2023-11-19T13:06:44;33.42;;;6.50;;
79212;SDS011;68639;52.380;9.822;2023-11-19T13:09:12;34.08;;;5.82;;
79212;SDS011;68639;52.380;9.822;2023-11-19T13:11:46;35.00;;;5.95;;
79212;SDS011;68639;52.380;9.822;2023-11-19T13:14:11;37.35;;;5.72;;
79212;SDS011;68639;52.380;9.822;2023-11-19T13:16:37;34.67;;;5.55;;
79212;SDS011;68639;52.380;9.822;2023-11-19T13:19:02;34.67;;;5.85;;
79212;SDS011;68639;52.380;9.822;2023-11-19T13:21:28;30.40;;;5.25;;
79212;SDS011;68639;52.380;9.822;2023-11-19T13:23:53;30.80;;;5.30;;
79212;SDS011;68639;52.380;9.822;2023-11-19T13:26:18;27.23;;;5.15;;
79212;SDS011;68639;52.380;9.822;2023-11-19T13:28:43;27.40;;;5.05;;
79212;SDS011;68639;52.380;9.822;2023-11-19T13:31:08;33.35;;;5.70;;
79212;SDS011;68639;52.380;9.822;2023-11-19T13:33:35;29.13;;;5.70;;
79212;SDS011;68639;52.380;9.822;2023-11-19T13:36:01;34.53;;;6.18;;
79212;SDS011;68639;52.380;9.822;2023-11-19T13:38:31;33.47;;;6.05;;
79212;SDS011;68639;52.380;9.822;2023-11-19T13:40:57;33.05;;;5.55;;
79212;SDS011;68639;52.380;9.822;2023-11-19T13:43:23;34.72;;;5.80;;
79212;SDS011;68639;52.380;9.822;2023-11-19T13:45:49;34.80;;;6.10;;
79212;SDS011;68639;52.380;9.822;2023-11-19T13:48:14;29.83;;;5.88;;
79212;SDS011;68639;52.380;9.822;2023-11-19T13:50:39;39.13;;;6.45;;
79212;SDS011;68639;52.380;9.822;2023-11-19T13:53:04;28.50;;;6.32;;
79212;SDS011;68639;52.380;9.822;2023-11-19T13:55:29;29.65;;;5.72;;
79212;SDS011;68639;52.380;9.822;2023-11-19T13:57:55;36.40;;;5.82;;
79212;SDS011;68639;52.380;9.822;2023-11-19T14:00:20;35.13;;;6.15;;
79212;SDS011;68639;52.380;9.822;2023-11-19T14:02:47;27.77;;;5.07;;
79212;SDS011;68639;52.380;9.822;2023-11-19T14:05:13;27.23;;;5.25;;
79212;SDS011;68639;52.380;9.822;2023-11-19T14:07:39;27.60;;;4.88;;
79212;SDS011;68639;52.380;9.822;2023-11-19T14:10:04;31.63;;;5.65;;
79212;SDS011;68639;52.380;9.822;2023-11-19T14:12:31;32.97;;;5.97;;
79212;SDS011;68639;52.380;9.822;2023-11-19T14:14:57;32.03;;;5.57;;
79212;SDS011;68639;52.380;9.822;2023-11-19T14:17:22;38.25;;;6.50;;
79212;SDS011;68639;52.380;9.822;2023-11-19T14:19:47;35.90;;;5.97;;
79212;SDS011;68639;52.380;9.822;2023-11-19T14:22:13;39.93;;;6.00;;
79212;SDS011;68639;52.380;9.822;2023-11-19T14:24:38;28.98;;;6.22;;
79212;SDS011;68639;52.380;9.822;2023-11-19T14:27:04;40.42;;;6.18;;
79212;SDS011;68639;52.380;9.822;2023-11-19T14:29:30;37.13;;;6.30;;
79212;SDS011;68639;52.380;9.822;2023-11-19T14:31:55;29.77;;;5.80;;
79212;SDS011;68639;52.380;9.822;2023-11-19T14:34:21;40.00;;;6.28;;
79212;SDS011;68639;52.380;9.822;2023-11-19T14:36:46;36.10;;;6.57;;
79212;SDS011;68639;52.380;9.822;2023-11-19T14:39:12;34.60;;;6.47;;
79212;SDS011;68639;52.380;9.822;2023-11-19T14:41:37;29.83;;;6.18;;
79212;SDS011;68639;52.380;9.822;2023-11-19T14:44:03;35.33;;;6.88;;
79212;SDS011;68639;52.380;9.822;2023-11-19T14:46:29;34.85;;;7.30;;
79212;SDS011;68639;52.380;9.822;2023-11-19T14:48:54;38.90;;;6.70;;